createdAt,value
2018-05-17T00:02:20.013Z,58.72
2018-05-17T00:07:11.330Z,58.95
2018-05-17T00:12:02.776Z,59.10
2018-05-17T00:16:54.121Z,59.23
2018-05-17T00:21:46.129Z,59.44
2018-05-17T00:26:37.444Z,59.64
2018-05-17T00:31:28.721Z,59.63
2018-05-17T00:36:20.001Z,59.61
2018-05-17T00:41:11.254Z,59.66
2018-05-17T00:46:02.541Z,59.71
2018-05-17T00:50:53.822Z,59.69
2018-05-17T00:55:45.093Z,59.75
2018-05-17T01:00:37.192Z,59.79
2018-05-17T01:05:28.504Z,60.06
2018-05-17T01:10:19.802Z,60.14
2018-05-17T01:15:11.066Z,60.20
2018-05-17T01:20:02.427Z,60.18
2018-05-17T01:24:53.629Z,60.04
2018-05-17T01:29:44.876Z,60.24
2018-05-17T01:34:36.145Z,60.31
2018-05-17T01:39:28.240Z,60.59
2018-05-17T01:44:19.558Z,60.82
2018-05-17T01:49:10.804Z,61.02
2018-05-17T01:54:02.124Z,61.10
2018-05-17T01:58:53.368Z,61.42
2018-05-17T02:03:44.614Z,61.66
2018-05-17T02:08:35.903Z,61.90
2018-05-17T02:13:27.191Z,62.21
2018-05-17T02:18:19.274Z,62.45
2018-05-17T02:23:10.525Z,62.74
2018-05-17T02:28:01.769Z,63.06
2018-05-17T02:32:53.048Z,63.30
2018-05-17T02:37:44.425Z,63.53
2018-05-17T02:42:35.774Z,63.72
2018-05-17T02:47:27.792Z,63.95
2018-05-17T02:52:19.116Z,64.22
2018-05-17T02:57:10.336Z,64.29
2018-05-17T03:02:01.546Z,64.35
2018-05-17T03:06:52.817Z,64.59
2018-05-17T03:11:44.131Z,64.71
2018-05-17T03:16:35.523Z,64.90
2018-05-17T03:21:26.791Z,64.92
2018-05-17T03:26:18.053Z,64.96
2018-05-17T03:31:09.335Z,65.14
2018-05-17T03:36:00.634Z,65.18
2018-05-17T03:40:51.902Z,65.17
2018-05-17T03:45:43.152Z,65.08
2018-05-17T03:50:34.386Z,65.12
2018-05-17T03:55:25.673Z,65.09
2018-05-17T04:00:16.920Z,64.95
2018-05-17T04:05:26.634Z,64.96
2018-05-17T04:10:18.685Z,64.89
2018-05-17T04:15:10.685Z,64.79
2018-05-17T04:20:01.953Z,64.76
2018-05-17T04:24:54.045Z,64.63
2018-05-17T04:29:45.329Z,64.66
2018-05-17T04:34:37.374Z,64.58
2018-05-17T04:39:29.454Z,64.55
2018-05-17T04:44:20.732Z,64.41
2018-05-17T04:49:12.817Z,64.11
2018-05-17T04:54:04.153Z,63.87
2018-05-17T04:58:55.387Z,63.59
2018-05-17T05:03:46.661Z,63.51
2018-05-17T05:08:38.011Z,63.38
2018-05-17T05:13:30.021Z,63.15
2018-05-17T05:18:21.284Z,63.06
2018-05-17T05:23:13.369Z,62.95
2018-05-17T05:28:04.684Z,62.73
2018-05-17T05:32:55.925Z,62.59
2018-05-17T05:37:47.181Z,62.39
2018-05-17T05:42:38.456Z,62.18
2018-05-17T05:47:30.527Z,62.05
2018-05-17T05:52:21.825Z,61.86
2018-05-17T05:57:13.881Z,61.87
2018-05-17T06:02:05.157Z,61.90
2018-05-17T06:06:56.509Z,61.83
2018-05-17T06:11:47.793Z,61.75
2018-05-17T06:16:39.116Z,61.66
2018-05-17T06:21:30.348Z,61.52
2018-05-17T06:26:21.640Z,61.71
2018-05-17T06:31:13.602Z,61.63
2018-05-17T06:36:04.978Z,61.54
2018-05-17T06:40:56.256Z,61.58
2018-05-17T06:45:48.364Z,61.43
2018-05-17T06:50:39.711Z,61.20
2018-05-17T06:55:30.988Z,61.31
2018-05-17T07:00:22.318Z,61.30
2018-05-17T07:05:13.612Z,61.20
2018-05-17T07:10:05.598Z,60.56
2018-05-17T07:14:56.875Z,58.67
2018-05-17T07:19:48.165Z,56.93
2018-05-17T07:24:39.529Z,54.52
2018-05-17T07:29:30.966Z,52.30
2018-05-17T07:34:23.152Z,50.02
2018-05-17T07:39:14.589Z,49.85
2018-05-17T07:44:05.793Z,49.15
2018-05-17T07:48:57.829Z,47.34
2018-05-17T07:53:49.870Z,46.38
2018-05-17T07:58:41.909Z,45.63
2018-05-17T08:03:33.156Z,44.93
2018-05-17T08:08:25.144Z,44.20
2018-05-17T08:13:16.450Z,43.68
2018-05-17T08:18:07.711Z,43.20
2018-05-17T08:22:59.067Z,43.58
2018-05-17T08:27:50.316Z,43.83
2018-05-17T08:32:42.310Z,44.16
2018-05-17T08:37:33.710Z,45.65
2018-05-17T08:42:24.999Z,46.05
2018-05-17T08:47:16.228Z,46.93
2018-05-17T08:52:07.517Z,47.64
2018-05-17T08:56:58.869Z,48.47
2018-05-17T09:01:50.125Z,47.67
2018-05-17T09:06:42.228Z,46.88
2018-05-17T09:11:33.506Z,46.93
2018-05-17T09:16:25.472Z,46.63
2018-05-17T09:21:17.427Z,46.10
2018-05-17T09:26:08.645Z,46.85
2018-05-17T09:31:07.015Z,48.13
2018-05-17T09:35:59.017Z,48.05
2018-05-17T09:40:50.321Z,49.29
2018-05-17T09:45:41.661Z,49.41
2018-05-17T09:50:32.946Z,48.74
2018-05-17T09:55:24.342Z,49.00
2018-05-17T10:00:21.598Z,47.69
2018-05-17T10:05:12.853Z,47.01
2018-05-17T10:10:04.134Z,46.20
2018-05-17T10:14:55.378Z,45.97
2018-05-17T10:19:46.621Z,44.82
2018-05-17T10:24:37.922Z,44.36
2018-05-17T10:29:29.266Z,44.30
2018-05-17T10:34:20.486Z,45.00
2018-05-17T10:39:11.728Z,44.24
2018-05-17T10:44:03.101Z,44.11
2018-05-17T10:48:54.426Z,42.70
2018-05-17T10:53:45.642Z,43.13
2018-05-17T10:58:36.951Z,43.17
2018-05-17T11:03:28.170Z,43.12
2018-05-17T11:08:19.426Z,43.92
2018-05-17T11:13:10.654Z,43.36
2018-05-17T11:18:01.950Z,43.11
2018-05-17T11:22:53.201Z,42.60
2018-05-17T11:27:45.197Z,42.43
2018-05-17T11:32:37.170Z,42.15
2018-05-17T11:37:28.422Z,41.30
2018-05-17T11:42:19.778Z,40.88
2018-05-17T11:47:11.077Z,41.11
2018-05-17T11:52:02.430Z,41.31
2018-05-17T11:56:53.739Z,40.52
2018-05-17T12:01:45.018Z,40.35
2018-05-17T12:06:36.297Z,41.03
2018-05-17T12:11:27.548Z,40.58
2018-05-17T12:16:18.847Z,39.74
2018-05-17T12:21:10.045Z,39.62
2018-05-17T12:26:01.355Z,39.60
2018-05-17T12:30:52.652Z,39.04
2018-05-17T12:35:43.968Z,39.57
2018-05-17T12:40:35.232Z,39.45
2018-05-17T12:45:27.306Z,39.15
2018-05-17T12:50:25.538Z,39.51
2018-05-17T12:55:16.845Z,40.06
2018-05-17T13:00:08.106Z,40.11
2018-05-17T13:04:59.455Z,39.68
2018-05-17T13:09:51.486Z,39.35
2018-05-17T13:14:42.754Z,38.95
2018-05-17T13:19:33.989Z,39.09
2018-05-17T13:24:25.252Z,38.42
2018-05-17T13:29:16.491Z,38.59
2018-05-17T13:34:07.809Z,38.90
2018-05-17T13:38:59.101Z,38.69
2018-05-17T13:43:50.370Z,38.92
2018-05-17T13:48:41.617Z,38.51
2018-05-17T13:53:32.848Z,38.14
2018-05-17T13:58:24.147Z,37.64
2018-05-17T14:03:22.368Z,37.86
2018-05-17T14:08:14.377Z,37.38
2018-05-17T14:13:05.687Z,37.52
2018-05-17T14:17:57.217Z,37.28
2018-05-17T14:22:48.512Z,36.26
2018-05-17T14:27:40.554Z,36.72
2018-05-17T14:32:33.993Z,36.72
2018-05-17T14:37:25.333Z,36.73
2018-05-17T14:42:19.694Z,36.94
2018-05-17T14:47:13.982Z,36.64
2018-05-17T14:52:05.298Z,36.61
2018-05-17T14:56:57.307Z,36.08
2018-05-17T15:01:48.662Z,36.10
2018-05-17T15:06:39.997Z,35.92
2018-05-17T15:11:31.258Z,36.04
2018-05-17T15:16:23.348Z,35.71
2018-05-17T15:21:14.695Z,35.81
2018-05-17T15:26:06.721Z,36.00
2018-05-17T15:30:59.405Z,36.22
2018-05-17T15:35:50.644Z,35.74
2018-05-17T15:40:41.936Z,35.58
2018-05-17T15:45:33.192Z,35.06
2018-05-17T15:50:24.529Z,34.68
2018-05-17T15:55:15.966Z,35.01
2018-05-17T16:00:07.505Z,34.84
2018-05-17T16:04:58.816Z,35.27
2018-05-17T16:09:50.116Z,34.65
2018-05-17T16:14:41.417Z,35.33
2018-05-17T16:19:33.430Z,35.86
2018-05-17T16:24:24.764Z,36.27
2018-05-17T16:29:16.108Z,36.05
2018-05-17T16:34:07.578Z,36.07
2018-05-17T16:38:58.842Z,36.32
2018-05-17T16:43:50.142Z,36.26
2018-05-17T16:48:41.513Z,36.42
2018-05-17T16:53:32.919Z,36.64
2018-05-17T16:58:24.203Z,36.61
2018-05-17T17:03:16.204Z,36.49
2018-05-17T17:08:07.538Z,36.65
2018-05-17T17:12:58.865Z,36.57
2018-05-17T17:17:50.140Z,37.21
2018-05-17T17:22:41.412Z,37.40
2018-05-17T17:27:33.472Z,37.78
2018-05-17T17:32:24.871Z,38.02
2018-05-17T17:37:16.899Z,38.42
2018-05-17T17:42:08.235Z,39.11
2018-05-17T17:46:59.626Z,39.60
2018-05-17T17:51:51.712Z,39.73
2018-05-17T17:56:43.084Z,39.82
2018-05-17T18:01:34.488Z,39.88
2018-05-17T18:06:26.691Z,39.77
2018-05-17T18:11:18.018Z,39.95
2018-05-17T18:16:10.167Z,40.11
2018-05-17T18:21:01.555Z,40.16
2018-05-17T18:25:52.973Z,40.34
2018-05-17T18:30:44.253Z,40.45
2018-05-17T18:35:36.280Z,40.39
2018-05-17T18:40:27.504Z,40.25
2018-05-17T18:45:18.765Z,40.41
2018-05-17T18:50:10.790Z,40.35
2018-05-17T18:55:02.118Z,40.55
2018-05-17T18:59:53.505Z,40.61
2018-05-17T19:04:44.869Z,40.92
2018-05-17T19:09:36.098Z,40.94
2018-05-17T19:14:27.423Z,41.19
2018-05-17T19:19:18.728Z,41.33
2018-05-17T19:24:09.993Z,41.41
2018-05-17T19:29:01.286Z,41.47
2018-05-17T19:33:52.622Z,41.54
2018-05-17T19:38:43.898Z,41.75
2018-05-17T19:43:35.900Z,41.85
2018-05-17T19:48:27.350Z,42.00
2018-05-17T19:53:18.671Z,42.18
2018-05-17T19:58:10.001Z,42.49
2018-05-17T20:03:01.307Z,42.81
2018-05-17T20:07:52.615Z,43.15
2018-05-17T20:12:43.866Z,43.33
2018-05-17T20:17:35.168Z,43.61
2018-05-17T20:22:27.142Z,43.78
2018-05-17T20:27:18.410Z,44.14
2018-05-17T20:32:09.750Z,44.37
2018-05-17T20:37:01.817Z,44.54
2018-05-17T20:41:54.245Z,44.74
2018-05-17T20:46:45.549Z,44.97
2018-05-17T20:51:36.831Z,45.20
2018-05-17T20:56:28.881Z,45.46
2018-05-17T21:01:20.933Z,45.80
2018-05-17T21:06:12.181Z,46.11
2018-05-17T21:11:03.439Z,46.40
2018-05-17T21:15:54.709Z,46.93
2018-05-17T21:20:46.680Z,47.26
2018-05-17T21:25:37.977Z,47.33
2018-05-17T21:30:30.034Z,47.72
2018-05-17T21:35:21.319Z,47.84
2018-05-17T21:40:12.567Z,48.41
2018-05-17T21:45:04.673Z,48.65
2018-05-17T21:49:56.236Z,49.04
2018-05-17T21:54:47.504Z,49.43
2018-05-17T21:59:38.758Z,49.63
2018-05-17T22:04:30.157Z,49.90
2018-05-17T22:09:22.116Z,50.01
2018-05-17T22:14:13.508Z,50.41
2018-05-17T22:19:04.776Z,50.98
2018-05-17T22:23:56.005Z,51.04
2018-05-17T22:28:47.225Z,51.08
2018-05-17T22:33:38.581Z,51.37
2018-05-17T22:38:29.869Z,51.57
2018-05-17T22:43:21.881Z,51.72
2018-05-17T22:48:13.144Z,51.89
2018-05-17T22:53:05.161Z,52.25
2018-05-17T22:58:14.947Z,52.70
2018-05-17T23:03:06.968Z,53.12
2018-05-17T23:07:58.233Z,53.39
2018-05-17T23:12:50.243Z,53.40
2018-05-17T23:17:41.568Z,53.65
2018-05-17T23:22:34.847Z,53.75
2018-05-17T23:27:26.074Z,54.01
2018-05-17T23:32:17.345Z,54.15
2018-05-17T23:37:19.920Z,54.23
2018-05-17T23:42:11.949Z,54.46
2018-05-17T23:47:03.308Z,54.75
2018-05-17T23:51:55.676Z,54.89
2018-05-17T23:56:46.947Z,55.43
